Time;durP1;ratioP1;P1;durP2;ratioP2;P2;SDS_P1;SDS_P2;PMS_P1;PMS_P2;Temp;Humidity;BMP_temperature;BMP_pressure;BME280_temperature;BME280_humidity;BME280_pressure;Samples;Min_cycle;Max_cycle;Signal;HPM_P1;HPM_P2
2023/01/19 06:42:53;;;;;;;5.82;2.42;;;;;;;;;;5127746;23;20119;-62
2023/01/19 06:45:19;;;;;;;5.82;2.55;;;;;;;;;;4935808;29;20019;-62
2023/01/19 06:47:47;;;;;;;4.78;2.63;;;;;;;;;;4936001;29;20095;-62
2023/01/19 06:50:13;;;;;;;4.60;2.70;;;;;;;;;;4935919;29;20075;-62
2023/01/19 06:52:41;;;;;;;3.70;2.15;;;;;;;;;;4935872;29;20032;-62
2023/01/19 06:55:09;;;;;;;3.40;1.92;;;;;;;;;;4935679;29;20068;-69
2023/01/19 06:57:37;;;;;;;5.18;1.90;;;;;;;;;;4935530;29;20064;-62
2023/01/19 07:00:06;;;;;;;3.80;2.00;;;;;;;;;;4935883;29;20483;-62
2023/01/19 07:02:32;;;;;;;5.43;2.05;;;;;;;;;;4935744;29;20051;-71
2023/01/19 07:04:58;;;;;;;3.72;1.83;;;;;;;;;;4935415;29;20036;-63
2023/01/19 07:07:25;;;;;;;5.47;2.38;;;;;;;;;;4935661;29;20043;-61
2023/01/19 07:09:51;;;;;;;5.60;1.83;;;;;;;;;;4935532;29;20038;-62
2023/01/19 07:12:17;;;;;;;3.67;1.80;;;;;;;;;;4935287;29;20551;-62
2023/01/19 07:14:43;;;;;;;3.72;1.95;;;;;;;;;;4935767;29;20039;-61
2023/01/19 07:17:09;;;;;;;3.40;1.60;;;;;;;;;;4935415;29;20031;-65
2023/01/19 07:19:35;;;;;;;3.50;1.83;;;;;;;;;;4935317;29;20107;-63
2023/01/19 07:22:02;;;;;;;2.70;1.45;;;;;;;;;;4935281;29;20440;-62
2023/01/19 07:24:29;;;;;;;3.60;1.98;;;;;;;;;;4934857;29;20032;-61
2023/01/19 07:26:55;;;;;;;5.55;3.08;;;;;;;;;;4934691;29;20039;-62
2023/01/19 07:29:22;;;;;;;6.78;3.70;;;;;;;;;;4934103;29;20027;-65
2023/01/19 07:31:49;;;;;;;4.03;2.35;;;;;;;;;;4934538;29;20028;-61
2023/01/19 07:34:14;;;;;;;4.18;2.38;;;;;;;;;;4935047;29;20404;-61
2023/01/19 07:36:40;;;;;;;4.88;2.90;;;;;;;;;;4934795;29;20040;-74
2023/01/19 07:39:07;;;;;;;3.97;2.40;;;;;;;;;;4926938;29;20027;-61
2023/01/19 07:41:33;;;;;;;7.85;4.22;;;;;;;;;;4923159;29;20041;-64
2023/01/19 07:43:58;;;;;;;9.07;4.40;;;;;;;;;;4924604;29;20044;-75
2023/01/19 07:46:24;;;;;;;8.77;4.93;;;;;;;;;;4943902;29;20027;-64
2023/01/19 07:48:51;;;;;;;8.82;4.00;;;;;;;;;;4943438;29;20031;-67
2023/01/19 07:51:17;;;;;;;14.57;6.72;;;;;;;;;;4941990;29;20038;-69
2023/01/19 07:53:44;;;;;;;11.20;5.65;;;;;;;;;;4943419;29;20043;-62
2023/01/19 07:56:10;;;;;;;11.13;4.57;;;;;;;;;;4934824;29;20034;-75
2023/01/19 07:58:36;;;;;;;10.73;5.40;;;;;;;;;;4934859;29;20377;-80
2023/01/19 08:01:06;;;;;;;13.00;5.78;;;;;;;;;;4934457;29;20090;-63
2023/01/19 08:03:32;;;;;;;7.53;4.07;;;;;;;;;;4934822;29;20075;-68
2023/01/19 08:05:58;;;;;;;7.28;3.08;;;;;;;;;;4934459;29;20059;-66
2023/01/19 08:08:25;;;;;;;7.45;3.00;;;;;;;;;;4934504;29;20435;-83
2023/01/19 08:10:51;;;;;;;3.85;1.90;;;;;;;;;;4939732;29;20027;-65
2023/01/19 08:13:17;;;;;;;5.03;1.95;;;;;;;;;;4953163;29;20075;-67
2023/01/19 08:15:44;;;;;;;4.80;1.65;;;;;;;;;;4953690;29;20106;-66
2023/01/19 08:18:10;;;;;;;3.25;1.80;;;;;;;;;;4951675;29;20038;-65
2023/01/19 08:20:36;;;;;;;6.47;2.97;;;;;;;;;;4934025;29;20027;-65
2023/01/19 08:23:04;;;;;;;6.35;2.53;;;;;;;;;;4933903;29;20035;-67
2023/01/19 08:25:41;;;;;;;5.18;1.95;;;;;;;;;;4934055;29;20023;-70
2023/01/19 08:28:07;;;;;;;4.38;2.20;;;;;;;;;;4934079;29;20040;-67
2023/01/19 08:30:34;;;;;;;3.35;1.50;;;;;;;;;;4933837;29;20028;-67
2023/01/19 08:33:06;;;;;;;4.47;1.77;;;;;;;;;;4934041;29;20028;-67
2023/01/19 08:35:34;;;;;;;21.10;9.23;;;;;;;;;;4934019;29;20020;-69
2023/01/19 08:38:01;;;;;;;4.82;2.53;;;;;;;;;;4916799;29;20058;-69
2023/01/19 08:40:28;;;;;;;5.72;2.38;;;;;;;;;;4934017;29;20075;-65
2023/01/19 08:42:59;;;;;;;3.95;1.92;;;;;;;;;;4933737;29;20082;-65
2023/01/19 08:45:27;;;;;;;6.13;2.13;;;;;;;;;;4933544;29;20027;-65
2023/01/19 08:47:56;;;;;;;10.02;3.58;;;;;;;;;;4933402;29;20028;-65
2023/01/19 08:50:22;;;;;;;9.68;5.30;;;;;;;;;;4933667;29;20028;-65
2023/01/19 08:52:48;;;;;;;9.15;4.20;;;;;;;;;;4933475;29;20115;-65
2023/01/19 08:55:14;;;;;;;9.10;4.63;;;;;;;;;;4933951;29;20063;-66
2023/01/19 08:57:41;;;;;;;10.27;5.05;;;;;;;;;;4933485;29;20097;-65
2023/01/19 09:00:07;;;;;;;11.60;5.90;;;;;;;;;;4933601;29;20199;-66
2023/01/19 09:02:33;;;;;;;15.25;6.20;;;;;;;;;;4933784;29;20118;-72
2023/01/19 09:04:59;;;;;;;9.57;4.78;;;;;;;;;;4933411;29;20064;-66
2023/01/19 09:07:27;;;;;;;8.88;4.25;;;;;;;;;;4933669;29;20031;-66
2023/01/19 09:09:53;;;;;;;8.88;3.00;;;;;;;;;;4933419;29;20027;-65
2023/01/19 09:12:19;;;;;;;8.35;3.03;;;;;;;;;;4933475;29;20040;-66
2023/01/19 09:14:45;;;;;;;4.75;2.72;;;;;;;;;;4933538;29;20031;-67
2023/01/19 09:17:13;;;;;;;6.68;2.50;;;;;;;;;;4933496;29;20071;-78
2023/01/19 09:19:39;;;;;;;4.00;2.00;;;;;;;;;;4933605;29;20024;-83
2023/01/19 09:22:05;;;;;;;4.00;1.67;;;;;;;;;;4933634;29;20051;-64
2023/01/19 09:24:33;;;;;;;5.45;1.90;;;;;;;;;;4933433;29;20038;-63
2023/01/19 09:26:59;;;;;;;8.00;2.00;;;;;;;;;;4933443;29;20035;-65
2023/01/19 09:29:25;;;;;;;4.53;1.92;;;;;;;;;;4933221;29;20043;-75
2023/01/19 09:31:51;;;;;;;7.15;1.70;;;;;;;;;;4933665;29;20476;-63
2023/01/19 09:34:18;;;;;;;5.00;1.60;;;;;;;;;;4933503;29;20038;-63
2023/01/19 09:36:45;;;;;;;5.78;1.80;;;;;;;;;;4933402;29;20099;-71
2023/01/19 09:39:11;;;;;;;3.75;1.55;;;;;;;;;;4933426;29;20087;-63
2023/01/19 09:41:38;;;;;;;4.57;1.55;;;;;;;;;;4932684;29;20526;-63
2023/01/19 09:44:04;;;;;;;7.20;1.90;;;;;;;;;;4933246;29;20027;-63
2023/01/19 09:46:41;;;;;;;4.70;1.67;;;;;;;;;;4933044;29;20038;-63
2023/01/19 09:49:15;;;;;;;3.53;1.80;;;;;;;;;;4933041;29;20023;-63
2023/01/19 09:51:44;;;;;;;5.55;1.92;;;;;;;;;;4933184;29;20032;-63
2023/01/19 09:54:13;;;;;;;3.90;1.50;;;;;;;;;;4933251;29;20024;-64
2023/01/19 09:56:39;;;;;;;7.22;1.80;;;;;;;;;;4932813;29;20575;-64
2023/01/19 09:59:26;;;;;;;7.20;2.20;;;;;;;;;;4933066;29;20023;-65
2023/01/19 10:01:52;;;;;;;5.63;2.05;;;;;;;;;;4935894;29;20028;-64
2023/01/19 10:04:27;;;;;;;6.22;2.30;;;;;;;;;;4936969;29;20083;-64
2023/01/19 13:31:41;;;;;;;6.65;3.35;;;;;;;;;;5166989;23;20059;-63
2023/01/19 13:34:17;;;;;;;8.40;3.03;;;;;;;;;;4932061;29;20106;-66
2023/01/19 13:36:44;;;;;;;8.30;3.47;;;;;;;;;;4937308;29;20102;-62
2023/01/19 13:39:16;;;;;;;6.93;3.33;;;;;;;;;;4937118;29;20107;-63
2023/01/19 13:41:43;;;;;;;5.72;2.92;;;;;;;;;;4937378;29;20032;-65
2023/01/19 13:44:13;;;;;;;7.97;4.30;;;;;;;;;;4937187;29;20064;-63
2023/01/19 13:46:40;;;;;;;7.30;3.60;;;;;;;;;;4937071;29;20040;-62
2023/01/19 13:49:18;;;;;;;8.45;3.83;;;;;;;;;;4936869;29;20035;-61
2023/01/19 13:51:44;;;;;;;6.07;3.47;;;;;;;;;;4937139;29;20043;-61
2023/01/19 13:54:16;;;;;;;6.72;3.28;;;;;;;;;;4936918;29;20032;-61
2023/01/19 13:56:49;;;;;;;6.68;3.67;;;;;;;;;;4937003;29;20340;-62
2023/01/19 13:59:15;;;;;;;5.13;3.03;;;;;;;;;;4936702;29;20023;-62
2023/01/19 14:01:42;;;;;;;5.38;2.55;;;;;;;;;;4935887;29;20106;-75
2023/01/19 14:04:25;;;;;;;6.15;3.30;;;;;;;;;;4936219;29;20114;-61
2023/01/19 14:06:54;;;;;;;6.80;3.58;;;;;;;;;;4936643;29;20087;-61
2023/01/19 14:09:20;;;;;;;6.47;3.30;;;;;;;;;;4936622;29;20024;-65
2023/01/19 14:12:05;;;;;;;5.45;4.20;;;;;;;;;;4936329;29;20031;-61
2023/01/19 14:14:31;;;;;;;6.30;4.22;;;;;;;;;;4935877;29;20051;-62
2023/01/19 14:16:58;;;;;;;9.20;4.28;;;;;;;;;;4936565;29;20042;-61
2023/01/19 14:19:24;;;;;;;5.95;3.33;;;;;;;;;;4936320;29;20023;-62
2023/01/19 14:22:17;;;;;;;6.78;3.90;;;;;;;;;;4936031;29;20132;-61
2023/01/19 14:24:43;;;;;;;7.10;4.25;;;;;;;;;;4932637;29;20118;-61
2023/01/19 14:27:10;;;;;;;5.80;4.30;;;;;;;;;;4936133;29;20028;-61
2023/01/19 14:29:37;;;;;;;5.85;3.83;;;;;;;;;;4936257;29;20024;-60
2023/01/19 14:32:06;;;;;;;6.57;4.07;;;;;;;;;;4935880;29;20130;-61
2023/01/19 14:34:35;;;;;;;6.22;3.88;;;;;;;;;;4936192;29;20027;-61
2023/01/19 14:37:03;;;;;;;5.20;3.35;;;;;;;;;;4936229;29;20026;-60
2023/01/19 14:39:31;;;;;;;5.15;3.58;;;;;;;;;;4936198;29;20055;-61
2023/01/19 14:41:58;;;;;;;6.53;3.80;;;;;;;;;;4935717;29;20028;-61
2023/01/19 14:44:39;;;;;;;5.85;3.90;;;;;;;;;;4935805;29;20035;-72
2023/01/19 14:47:06;;;;;;;8.13;4.07;;;;;;;;;;4935104;29;20047;-76
2023/01/19 14:49:35;;;;;;;6.50;4.03;;;;;;;;;;4936030;29;20596;-61
2023/01/19 14:52:16;;;;;;;8.88;4.43;;;;;;;;;;4936280;29;20118;-61
2023/01/19 14:54:44;;;;;;;5.15;2.90;;;;;;;;;;4935578;29;20162;-62
2023/01/19 14:57:12;;;;;;;6.55;3.67;;;;;;;;;;4935776;29;20039;-61
2023/01/19 14:59:38;;;;;;;4.88;2.80;;;;;;;;;;4935012;29;20525;-61
2023/01/19 15:02:04;;;;;;;3.88;2.22;;;;;;;;;;4936006;29;20491;-61
2023/01/19 15:04:30;;;;;;;6.10;3.85;;;;;;;;;;4935656;29;20492;-61
2023/01/19 15:06:56;;;;;;;5.70;2.72;;;;;;;;;;4935858;29;20031;-77
2023/01/19 15:09:22;;;;;;;5.90;3.45;;;;;;;;;;4935816;29;20039;-61
2023/01/19 15:11:49;;;;;;;6.00;3.38;;;;;;;;;;4935887;29;20058;-61
2023/01/19 15:14:16;;;;;;;5.07;3.10;;;;;;;;;;4921607;29;20114;-61
2023/01/19 15:16:42;;;;;;;4.35;2.97;;;;;;;;;;4936345;29;20024;-62
2023/01/19 15:19:10;;;;;;;4.57;2.70;;;;;;;;;;4937963;29;20028;-70
2023/01/19 15:21:40;;;;;;;6.18;3.50;;;;;;;;;;4947944;29;20019;-65
2023/01/19 15:24:06;;;;;;;5.22;3.75;;;;;;;;;;4949210;29;20042;-62
2023/01/19 15:26:32;;;;;;;7.05;3.50;;;;;;;;;;4950312;29;20103;-62
2023/01/19 15:28:58;;;;;;;6.95;3.75;;;;;;;;;;4937835;29;20023;-62
2023/01/19 15:31:25;;;;;;;9.18;5.03;;;;;;;;;;4934812;29;20058;-63
2023/01/19 15:33:51;;;;;;;5.53;3.72;;;;;;;;;;4937512;29;20490;-62
2023/01/19 15:36:18;;;;;;;7.63;4.32;;;;;;;;;;4937687;29;20031;-62
2023/01/19 15:38:44;;;;;;;7.07;4.13;;;;;;;;;;4937542;29;20114;-62
2023/01/19 15:41:14;;;;;;;9.32;4.10;;;;;;;;;;4935015;29;20524;-63
2023/01/19 15:43:40;;;;;;;9.45;4.53;;;;;;;;;;4934616;29;20392;-63
2023/01/19 15:46:07;;;;;;;8.50;4.38;;;;;;;;;;4935854;29;20027;-63
2023/01/19 15:48:33;;;;;;;8.93;4.97;;;;;;;;;;4937692;29;20106;-64
2023/01/19 15:50:59;;;;;;;9.05;4.55;;;;;;;;;;4934950;29;20464;-63
2023/01/19 15:53:26;;;;;;;10.82;6.22;;;;;;;;;;4936989;29;20063;-63
2023/01/19 15:55:54;;;;;;;12.05;6.85;;;;;;;;;;4941492;29;20639;-62
2023/01/19 15:58:22;;;;;;;11.65;5.30;;;;;;;;;;4953246;28;20031;-62
2023/01/19 16:00:55;;;;;;;12.48;5.60;;;;;;;;;;4953607;29;20106;-62
2023/01/19 16:03:21;;;;;;;10.45;4.93;;;;;;;;;;4951216;29;20102;-64
2023/01/19 16:05:47;;;;;;;7.15;4.40;;;;;;;;;;4943972;29;20095;-62
2023/01/19 16:08:13;;;;;;;9.50;4.50;;;;;;;;;;4944957;29;20089;-63
2023/01/19 16:10:40;;;;;;;7.63;4.72;;;;;;;;;;4943863;29;20036;-63
2023/01/19 16:13:07;;;;;;;9.10;4.55;;;;;;;;;;4939787;29;20392;-68
2023/01/19 16:15:37;;;;;;;9.77;4.18;;;;;;;;;;4936445;29;20030;-63
2023/01/19 16:18:03;;;;;;;8.70;4.05;;;;;;;;;;4953401;29;20047;-64
2023/01/19 16:20:30;;;;;;;5.68;2.75;;;;;;;;;;4946974;29;20049;-66
2023/01/19 16:22:56;;;;;;;4.97;2.97;;;;;;;;;;4953176;29;20039;-64
2023/01/19 16:25:22;;;;;;;6.90;3.42;;;;;;;;;;4953344;29;20075;-64
2023/01/19 16:27:48;;;;;;;7.25;3.90;;;;;;;;;;4953246;29;20176;-62
2023/01/19 16:30:18;;;;;;;6.57;3.85;;;;;;;;;;4941660;29;20531;-63
2023/01/19 16:32:44;;;;;;;7.97;4.20;;;;;;;;;;4933763;29;20051;-63
2023/01/19 16:35:10;;;;;;;10.70;4.95;;;;;;;;;;4934218;29;20034;-63
2023/01/19 16:37:36;;;;;;;7.63;3.90;;;;;;;;;;4936162;29;20119;-63
2023/01/19 16:40:03;;;;;;;9.82;4.70;;;;;;;;;;4937829;29;20020;-63
2023/01/19 16:42:29;;;;;;;6.05;3.10;;;;;;;;;;4933642;29;20035;-64
2023/01/19 16:44:55;;;;;;;5.82;3.35;;;;;;;;;;4945176;29;20039;-64
2023/01/19 16:47:21;;;;;;;9.43;3.67;;;;;;;;;;4948015;29;20165;-63
2023/01/19 16:49:48;;;;;;;8.68;4.03;;;;;;;;;;4935741;29;20031;-63
2023/01/19 16:52:14;;;;;;;7.30;4.40;;;;;;;;;;4933688;29;20032;-63
2023/01/19 16:54:43;;;;;;;7.13;4.20;;;;;;;;;;4933645;29;20035;-63
2023/01/19 16:57:10;;;;;;;7.95;4.70;;;;;;;;;;4933670;29;20581;-63
2023/01/19 16:59:38;;;;;;;8.70;5.00;;;;;;;;;;4942225;29;20512;-62
2023/01/19 17:02:04;;;;;;;9.80;5.40;;;;;;;;;;4952878;29;20118;-62
2023/01/19 17:04:30;;;;;;;6.20;3.83;;;;;;;;;;4952732;29;20042;-63
2023/01/19 17:06:56;;;;;;;8.30;3.83;;;;;;;;;;4952817;29;20102;-64
2023/01/19 17:09:22;;;;;;;11.18;5.68;;;;;;;;;;4952307;28;20039;-63
2023/01/19 17:11:48;;;;;;;11.77;5.60;;;;;;;;;;4952401;29;20023;-63
2023/01/19 17:14:21;;;;;;;7.45;4.68;;;;;;;;;;4952426;29;20483;-63
2023/01/19 17:16:47;;;;;;;10.45;5.32;;;;;;;;;;4935426;29;20031;-64
2023/01/19 17:19:15;;;;;;;8.90;4.30;;;;;;;;;;4942152;29;20414;-63
2023/01/19 17:21:42;;;;;;;8.15;4.75;;;;;;;;;;4932941;29;20392;-64
2023/01/19 17:24:09;;;;;;;7.55;4.22;;;;;;;;;;4933383;29;20050;-64
2023/01/19 17:26:35;;;;;;;6.97;3.85;;;;;;;;;;4933650;29;20028;-75
2023/01/19 17:29:02;;;;;;;8.27;3.75;;;;;;;;;;4933403;29;20050;-63
2023/01/19 17:31:29;;;;;;;7.10;3.75;;;;;;;;;;4932975;29;20098;-63
2023/01/19 17:33:55;;;;;;;6.65;4.75;;;;;;;;;;4933105;29;20038;-63
2023/01/19 17:36:24;;;;;;;9.65;5.40;;;;;;;;;;4933244;29;20387;-63
2023/01/19 17:38:50;;;;;;;9.70;5.20;;;;;;;;;;4933216;29;20135;-64
2023/01/19 17:41:23;;;;;;;9.57;5.20;;;;;;;;;;4933129;29;20484;-64
2023/01/19 17:43:50;;;;;;;10.27;5.03;;;;;;;;;;4932964;29;20055;-64
2023/01/19 17:46:16;;;;;;;10.02;5.78;;;;;;;;;;4947741;29;20031;-64
2023/01/19 17:48:43;;;;;;;11.93;6.30;;;;;;;;;;4952368;29;20082;-63
2023/01/19 17:51:10;;;;;;;11.02;6.35;;;;;;;;;;4934793;29;20031;-64
2023/01/19 17:53:36;;;;;;;9.88;5.43;;;;;;;;;;4952425;29;20475;-74
2023/01/19 17:56:13;;;;;;;9.30;5.07;;;;;;;;;;4952230;29;20027;-63
2023/01/19 17:58:40;;;;;;;12.60;5.63;;;;;;;;;;4952231;29;20035;-63
2023/01/19 18:01:10;;;;;;;6.50;4.65;;;;;;;;;;4952022;29;20397;-63
2023/01/19 18:03:36;;;;;;;8.30;5.03;;;;;;;;;;4952100;29;20086;-63
2023/01/19 18:06:02;;;;;;;9.90;5.72;;;;;;;;;;4952229;29;20019;-63
2023/01/19 18:08:28;;;;;;;14.00;7.68;;;;;;;;;;4946261;29;20165;-65
2023/01/19 18:10:55;;;;;;;15.55;9.00;;;;;;;;;;4936453;29;20107;-63
2023/01/19 18:13:21;;;;;;;11.43;6.60;;;;;;;;;;4932898;29;20444;-63
2023/01/19 18:15:47;;;;;;;12.70;6.95;;;;;;;;;;4951310;29;20023;-63
2023/01/19 18:18:13;;;;;;;12.82;6.40;;;;;;;;;;4952169;29;20045;-63
2023/01/19 18:20:41;;;;;;;9.45;6.03;;;;;;;;;;4940773;29;20035;-63
2023/01/19 18:23:07;;;;;;;11.27;6.55;;;;;;;;;;4942800;29;20416;-64
2023/01/19 18:25:33;;;;;;;9.50;6.30;;;;;;;;;;4927909;29;20114;-64
2023/01/19 18:27:59;;;;;;;8.77;5.38;;;;;;;;;;4943242;29;20023;-63
2023/01/19 18:30:25;;;;;;;8.00;4.80;;;;;;;;;;4942774;29;20043;-63
2023/01/19 18:32:51;;;;;;;7.43;4.40;;;;;;;;;;4944897;28;20050;-64
2023/01/19 18:35:17;;;;;;;8.52;5.40;;;;;;;;;;4944263;29;20115;-64
2023/01/19 18:37:44;;;;;;;9.13;6.47;;;;;;;;;;4943803;29;20509;-64
2023/01/19 18:40:10;;;;;;;9.15;5.90;;;;;;;;;;4946204;29;20419;-65
2023/01/19 18:42:36;;;;;;;6.25;4.78;;;;;;;;;;4943437;29;20920;-64
2023/01/19 18:45:02;;;;;;;6.97;5.00;;;;;;;;;;4950265;29;20091;-64
2023/01/19 18:47:28;;;;;;;8.20;5.13;;;;;;;;;;4932225;29;20043;-64
2023/01/19 18:49:54;;;;;;;11.52;6.60;;;;;;;;;;4949364;29;20034;-65
2023/01/19 18:52:20;;;;;;;10.32;6.55;;;;;;;;;;4943032;29;20031;-64
2023/01/19 18:54:49;;;;;;;10.30;6.25;;;;;;;;;;4938982;29;20380;-65
2023/01/19 18:57:16;;;;;;;8.00;5.30;;;;;;;;;;4954940;29;20082;-67
2023/01/19 18:59:42;;;;;;;8.27;4.45;;;;;;;;;;4954981;29;20030;-64
2023/01/19 19:02:12;;;;;;;6.25;4.57;;;;;;;;;;4954631;29;20042;-65
2023/01/19 19:04:38;;;;;;;7.10;4.88;;;;;;;;;;4946047;29;20111;-66
2023/01/19 19:07:04;;;;;;;7.32;4.68;;;;;;;;;;4935685;29;20561;-64
2023/01/19 19:09:30;;;;;;;28.58;12.70;;;;;;;;;;4935541;29;20036;-64
2023/01/19 19:11:56;;;;;;;10.55;6.60;;;;;;;;;;4936195;29;20020;-67
2023/01/19 19:14:22;;;;;;;10.00;6.15;;;;;;;;;;4943566;29;20031;-74
2023/01/19 19:16:49;;;;;;;8.50;6.28;;;;;;;;;;4944415;29;20075;-66
2023/01/19 19:19:15;;;;;;;12.40;7.53;;;;;;;;;;4942440;29;20531;-67
2023/01/19 19:21:41;;;;;;;9.38;6.80;;;;;;;;;;4941830;29;20039;-67
2023/01/19 19:24:10;;;;;;;20.20;13.93;;;;;;;;;;4944242;29;20031;-64
2023/01/19 19:26:36;;;;;;;18.80;11.02;;;;;;;;;;4943568;29;20011;-66
2023/01/19 19:29:03;;;;;;;12.95;7.82;;;;;;;;;;4945212;29;20378;-76
2023/01/19 19:31:29;;;;;;;12.38;8.27;;;;;;;;;;4934904;29;20044;-70
2023/01/19 19:33:56;;;;;;;13.70;9.30;;;;;;;;;;4942196;29;20035;-67
2023/01/19 19:36:22;;;;;;;11.05;7.75;;;;;;;;;;4942643;29;20055;-67
2023/01/19 19:38:48;;;;;;;10.00;6.68;;;;;;;;;;4943020;29;20106;-77
2023/01/19 19:41:19;;;;;;;9.45;6.53;;;;;;;;;;4943100;29;20024;-65
2023/01/19 19:43:45;;;;;;;10.55;7.13;;;;;;;;;;4942508;29;20050;-66
2023/01/19 19:46:12;;;;;;;10.65;7.20;;;;;;;;;;4944215;29;20024;-68
2023/01/19 19:48:38;;;;;;;13.77;7.63;;;;;;;;;;4942843;29;20039;-69
2023/01/19 19:51:15;;;;;;;8.70;6.35;;;;;;;;;;4954028;29;20138;-64
2023/01/19 19:53:41;;;;;;;12.40;7.93;;;;;;;;;;4950903;29;20031;-67
2023/01/19 19:56:09;;;;;;;12.80;8.80;;;;;;;;;;4944426;29;20032;-72
2023/01/19 19:58:35;;;;;;;14.35;9.25;;;;;;;;;;4932188;29;20468;-74
2023/01/19 20:01:06;;;;;;;16.52;8.85;;;;;;;;;;4934712;29;20039;-75
2023/01/19 20:03:33;;;;;;;13.93;9.30;;;;;;;;;;4934440;29;20066;-69
2023/01/19 20:06:02;;;;;;;12.75;7.90;;;;;;;;;;4934223;29;20036;-72
2023/01/19 20:08:28;;;;;;;14.50;8.65;;;;;;;;;;4936466;29;20080;-66
2023/01/19 20:10:54;;;;;;;10.90;7.82;;;;;;;;;;4934342;29;20058;-69
2023/01/19 20:13:21;;;;;;;15.00;10.15;;;;;;;;;;4936195;29;20047;-66
2023/01/19 20:15:47;;;;;;;14.30;9.48;;;;;;;;;;4933289;29;20049;-74
2023/01/19 20:18:13;;;;;;;19.20;10.55;;;;;;;;;;4932826;29;20047;-72
2023/01/19 20:20:39;;;;;;;17.15;10.90;;;;;;;;;;4932663;29;20035;-72
2023/01/19 20:23:05;;;;;;;16.13;11.23;;;;;;;;;;4935879;29;20099;-75
2023/01/19 20:25:31;;;;;;;15.65;10.10;;;;;;;;;;4921226;29;20035;-73
2023/01/19 20:27:58;;;;;;;14.68;8.90;;;;;;;;;;4933634;29;20608;-77
2023/01/19 20:30:25;;;;;;;13.40;8.70;;;;;;;;;;4918736;29;20086;-80
2023/01/19 20:32:51;;;;;;;18.60;11.73;;;;;;;;;;4933809;29;20058;-71
2023/01/19 20:35:17;;;;;;;18.92;11.90;;;;;;;;;;4945960;29;20038;-75
2023/01/19 20:37:43;;;;;;;20.48;12.77;;;;;;;;;;4935344;29;20126;-77
2023/01/19 20:40:09;;;;;;;12.45;8.00;;;;;;;;;;4953079;29;20432;-78
2023/01/19 20:42:36;;;;;;;13.30;8.95;;;;;;;;;;4953105;29;20039;-82
2023/01/19 20:45:03;;;;;;;13.95;9.63;;;;;;;;;;4952096;28;20066;-80
2023/01/19 20:47:29;;;;;;;11.70;8.93;;;;;;;;;;4952917;29;20046;-78
2023/01/19 20:49:55;;;;;;;15.75;10.90;;;;;;;;;;4953197;29;20034;-83
2023/01/19 20:52:21;;;;;;;13.20;9.23;;;;;;;;;;4935901;29;20035;-82
2023/01/19 20:54:47;;;;;;;14.40;9.63;;;;;;;;;;4952275;29;20090;-84
2023/01/19 20:57:13;;;;;;;16.00;10.10;;;;;;;;;;4927129;29;20036;-81
2023/01/19 20:59:39;;;;;;;16.73;10.43;;;;;;;;;;4914881;29;20024;-78
2023/01/19 21:02:11;;;;;;;18.38;11.73;;;;;;;;;;4914229;29;20078;-76
2023/01/19 21:04:53;;;;;;;18.83;12.73;;;;;;;;;;4856115;29;20097;-79
2023/01/19 21:07:19;;;;;;;19.90;13.18;;;;;;;;;;4855894;29;20489;-70
2023/01/19 21:09:45;;;;;;;20.30;13.50;;;;;;;;;;4840565;29;20102;-72
2023/01/19 21:12:12;;;;;;;20.98;12.57;;;;;;;;;;4855167;29;20716;-76
2023/01/19 21:14:39;;;;;;;19.08;12.35;;;;;;;;;;4856002;29;20030;-75
2023/01/19 21:17:06;;;;;;;17.48;12.52;;;;;;;;;;4856044;29;20034;-71
2023/01/19 21:19:32;;;;;;;18.80;13.60;;;;;;;;;;4860520;29;20429;-73
2023/01/19 21:21:58;;;;;;;23.20;13.68;;;;;;;;;;4855633;29;20042;-75
2023/01/19 21:24:25;;;;;;;20.30;13.32;;;;;;;;;;4855842;29;20041;-77
2023/01/19 21:26:51;;;;;;;19.95;12.95;;;;;;;;;;4839639;29;20128;-74
2023/01/19 21:29:17;;;;;;;18.48;12.13;;;;;;;;;;4856006;29;20042;-74
2023/01/19 21:31:43;;;;;;;21.42;13.57;;;;;;;;;;4855565;29;20065;-73
2023/01/19 21:34:09;;;;;;;18.80;12.90;;;;;;;;;;4855548;29;20486;-68
2023/01/19 21:36:35;;;;;;;19.98;12.73;;;;;;;;;;4855552;29;20041;-69
2023/01/19 21:39:03;;;;;;;17.27;12.02;;;;;;;;;;4839751;29;20590;-73
2023/01/19 21:41:30;;;;;;;22.33;13.43;;;;;;;;;;4877807;29;20058;-69
2023/01/19 21:43:57;;;;;;;21.17;13.90;;;;;;;;;;4941202;29;20039;-71
2023/01/19 21:46:31;;;;;;;18.73;13.30;;;;;;;;;;4949918;29;20471;-74
2023/01/19 21:48:59;;;;;;;18.63;13.15;;;;;;;;;;4933066;29;20031;-74
2023/01/19 21:51:25;;;;;;;27.73;14.93;;;;;;;;;;4933365;29;20034;-68
2023/01/19 21:53:53;;;;;;;38.13;16.92;;;;;;;;;;4951655;29;20114;-73
2023/01/19 21:56:19;;;;;;;21.90;12.98;;;;;;;;;;4943207;28;20506;-73
2023/01/19 21:58:46;;;;;;;35.55;18.25;;;;;;;;;;4917582;29;20039;-74
2023/01/19 22:01:12;;;;;;;46.80;21.38;;;;;;;;;;4917589;29;20051;-72
2023/01/19 22:03:38;;;;;;;27.65;16.80;;;;;;;;;;4917304;29;20047;-67
2023/01/19 22:06:06;;;;;;;21.25;13.32;;;;;;;;;;4917390;29;20103;-76
2023/01/19 22:08:32;;;;;;;19.55;12.82;;;;;;;;;;4900599;29;20396;-75
2023/01/19 22:11:02;;;;;;;24.30;13.45;;;;;;;;;;4917832;29;20028;-66
2023/01/19 22:13:28;;;;;;;20.52;12.95;;;;;;;;;;4916883;29;20043;-72
2023/01/19 22:16:00;;;;;;;21.95;14.82;;;;;;;;;;4917408;29;20036;-74
2023/01/19 22:18:26;;;;;;;31.30;17.30;;;;;;;;;;4917457;29;20036;-75
2023/01/19 22:20:52;;;;;;;29.15;16.42;;;;;;;;;;4917374;29;20110;-69
2023/01/19 22:23:18;;;;;;;20.92;13.88;;;;;;;;;;4917707;29;20485;-73
2023/01/19 22:25:44;;;;;;;21.42;14.13;;;;;;;;;;4917544;29;20119;-77
2023/01/19 22:28:10;;;;;;;21.25;13.05;;;;;;;;;;4938798;29;20046;-70
2023/01/19 22:30:37;;;;;;;22.25;13.88;;;;;;;;;;4955758;29;20039;-66
2023/01/19 22:33:03;;;;;;;26.08;15.70;;;;;;;;;;4955341;28;20565;-67
2023/01/19 22:35:29;;;;;;;26.30;15.63;;;;;;;;;;4955325;29;20162;-67
2023/01/19 22:37:55;;;;;;;19.48;13.70;;;;;;;;;;4936200;29;20114;-73
2023/01/19 22:40:21;;;;;;;20.88;13.60;;;;;;;;;;4936484;29;20106;-68
2023/01/19 22:42:47;;;;;;;22.40;14.93;;;;;;;;;;4919205;29;20040;-73
2023/01/19 22:45:13;;;;;;;27.95;15.75;;;;;;;;;;4935876;29;20032;-71
2023/01/19 22:47:40;;;;;;;24.20;15.65;;;;;;;;;;4936246;29;20137;-75
2023/01/19 22:50:06;;;;;;;24.00;16.38;;;;;;;;;;4935618;29;20032;-78
2023/01/19 22:52:32;;;;;;;22.25;14.95;;;;;;;;;;4951447;29;20039;-74
2023/01/19 22:54:58;;;;;;;25.00;15.55;;;;;;;;;;4955073;29;20035;-72
2023/01/19 22:57:24;;;;;;;24.45;15.70;;;;;;;;;;4955168;29;20028;-70
2023/01/19 22:59:50;;;;;;;24.67;16.13;;;;;;;;;;4954959;29;20034;-67
2023/01/19 23:02:16;;;;;;;29.38;17.17;;;;;;;;;;4954509;29;20039;-66
2023/01/19 23:04:43;;;;;;;26.70;16.33;;;;;;;;;;4954948;29;20031;-65
2023/01/19 23:07:09;;;;;;;27.30;17.73;;;;;;;;;;4954257;28;20059;-69
